Delta Virtual Airport Information Service

Cincinnati Northern Kentucky International Airport

ICAO: KCVG Country: United States
Latitude: 39.0488 Longitude: -84.6678
Latest Arrival : DAL1020 (1C) (KTPA-KCVG) Latest Departure : DAC5282 (KCVG-KTPA)


WX CaptureLIVE
Data provided by noaa.gov | Fetched at 11:49:27

METAR : KCVG 281552Z 08012KT 10SM -RA SCT040 BKN050 OVC075 11/08 A2956 RMK AO2 RAB28 SLP008 P0000 T01110078

TAF : KCVG 281608Z 2816/2918 08012KT P6SM -RA VCSH SCT040 BKN050 OVC080 FM281800 12007KT 6SM -RA BR OVC035 FM282100 12007KT 3SM -RA BR OVC015 FM290000 10007KT 3SM -RA BR OVC008 FM291000 13005KT 2SM -DZ BR OVC005 FM291500 05005KT 3SM -DZ BR OVC008


Runway Data for KCVG
Data provided by openaviationdata.com

Runway ID Mag Var Hdg Length Elevation Surface ILS Freq ILS Id ILS Slope
9 -4 94° 11984 ft 896 ft Asphalt 111.9 IURN 3
18L -4 184° 10010 ft 896 ft Concrete 110.15 ICIZ 3
18R -4 184° 11010 ft 896 ft Asphalt 111.55 ISIC 3
27 -4 274° 11984 ft 896 ft Asphalt 108.7 IJDP 3
36L -4 11010 ft 896 ft Asphalt 109.9 ICVG 3
36R -4 10010 ft 896 ft Concrete 110.35 IEEI 3

Cincinnati Northern Kentucky International Airport, United States
Use only for reference purposes



Not for navigational purposes.